Bookmark and Share
Track history (hours):
 

Sunflower Hakata

Last reported at 2014-Apr-24 01:24 UTC. Time now 2014-Apr-24 02:19 UTC.
Position N 35°37' E 139°48'.

Length 167 m; draft 6.5 m.

Type: Cargo ship. MMSI: 431501764.

NotesDate/timePositionNaut miles runAvg speedWind from/ knotsBaromVisibWave heightAir tempDewpointWater temp
2014-Apr-24 01:24N 35°37' E 139°48'0 0.0
2014-Apr-24 00:27N 35°37' E 139°48'0 0.0
2014-Apr-23 23:30N 35°37' E 139°48'0 0.0
2014-Apr-23 22:33N 35°37' E 139°48'0 0.0
2014-Apr-23 21:30N 35°37' E 139°48'0 0.0
2014-Apr-23 20:34N 35°37' E 139°48'7 7.0
2014-Apr-23 19:33N 35°31' E 139°52'1414.5
2014-Apr-23 18:33N 35°18' E 139°45'1515.0
2014-Apr-23 17:33N 35°03' E 139°41'2020.0
2014-Apr-23 16:33N 34°51' E 139°21'22418.6
2014-Apr-23 04:33N 33°57' E 134°58'2221.8
2014-Apr-23 03:32N 34°19' E 134°59'1918.8
2014-Apr-23 02:33N 34°37' E 134°59'20913.8
2014-Apr-22 11:24N 34°00' E 130°50'1720.3
2014-Apr-22 10:33N 33°59' E 130°30'2020.3
2014-Apr-22 09:33N 33°42' E 130°16'9 8.5
2014-Apr-22 08:32N 33°38' E 130°24'0 0.0
2014-Apr-22 07:33N 33°38' E 130°24'0 0.0
2014-Apr-22 06:32N 33°38' E 130°24'0 0.0
2014-Apr-22 05:29N 33°38' E 130°24'0 0.0
2014-Apr-22 04:32N 33°38' E 130°24'0 0.0
2014-Apr-22 03:32N 33°38' E 130°24'0 0.0
2014-Apr-22 02:32N 33°38' E 130°24'0 0.0
2014-Apr-22 01:32N 33°38' E 130°24'0 0.0
2014-Apr-22 00:32N 33°38' E 130°24'0 0.0
2014-Apr-21 23:32N 33°38' E 130°24'0 0.1
2014-Apr-21 22:32N 33°37' E 130°24'0 0.0
2014-Apr-21 21:32N 33°37' E 130°24'0 0.0
2014-Apr-21 20:32N 33°37' E 130°24'0 0.0
2014-Apr-21 19:32N 33°37' E 130°24'0 0.0
2014-Apr-21 18:32N 33°37' E 130°24'0 0.0
2014-Apr-21 17:32N 33°37' E 130°24'0 0.0
2014-Apr-21 16:32N 33°37' E 130°24'0 0.0
2014-Apr-21 15:32N 33°37' E 130°24'0 0.0
2014-Apr-21 14:32N 33°37' E 130°24'0 0.0
2014-Apr-21 13:32N 33°37' E 130°24'0 0.0
2014-Apr-21 12:32N 33°37' E 130°24'0 0.0
2014-Apr-21 11:32N 33°37' E 130°24'0 0.0
2014-Apr-21 10:32N 33°37' E 130°24'0 0.0
2014-Apr-21 09:32N 33°37' E 130°24'0 0.0
2014-Apr-21 08:32N 33°37' E 130°24'0 0.0
2014-Apr-21 07:32N 33°37' E 130°24'0 0.0
2014-Apr-21 06:32N 33°37' E 130°24'0 0.0
2014-Apr-21 05:32N 33°37' E 130°24'0 0.0
2014-Apr-21 04:32N 33°37' E 130°24'0 0.0
2014-Apr-21 03:29N 33°37' E 130°24'0 0.0
2014-Apr-21 02:32N 33°37' E 130°24'0 0.0
2014-Apr-21 01:32N 33°37' E 130°24'0 0.0
2014-Apr-21 00:32N 33°37' E 130°24'0 0.0
2014-Apr-20 23:32N 33°37' E 130°24'0 0.0
2014-Apr-20 22:32N 33°37' E 130°24'0 0.0
2014-Apr-20 21:32N 33°37' E 130°24'0 0.0
2014-Apr-20 20:32N 33°37' E 130°24'8 8.6
2014-Apr-20 19:33N 33°42' E 130°15'2019.4
2014-Apr-20 18:32N 33°59' E 130°26'40215.4
2014-Apr-19 16:30N 34°28' E 138°31'4120.5
2014-Apr-19 14:30N 34°48' E 139°15'2223.0
2014-Apr-19 13:33N 35°02' E 139°35'1716.6
2014-Apr-19 12:34N 35°16' E 139°46'1615.5
2014-Apr-19 11:33N 35°31' E 139°51'7 6.7
2014-Apr-19 10:33N 35°37' E 139°48'0 0.0
2014-Apr-19 09:32N 35°37' E 139°48'0 0.0
2014-Apr-19 08:29N 35°37' E 139°48'0 0.0
2014-Apr-19 07:29N 35°37' E 139°48'0 0.0
2014-Apr-19 06:26N 35°37' E 139°48'0 0.0
2014-Apr-19 05:32N 35°37' E 139°48'0 0.0
2014-Apr-19 04:23N 35°37' E 139°48'0 0.0
2014-Apr-19 03:31N 35°37' E 139°48'0 0.0
2014-Apr-19 02:29N 35°37' E 139°48'0 0.0
2014-Apr-19 01:29N 35°37' E 139°48'0 0.0
2014-Apr-19 00:31N 35°37' E 139°48'0 0.0
2014-Apr-18 23:29N 35°37' E 139°48'0 0.0
2014-Apr-18 22:31N 35°37' E 139°48'0 0.0
2014-Apr-18 21:32N 35°37' E 139°48'0 0.0
2014-Apr-18 20:33N 35°37' E 139°48'8 8.0
2014-Apr-18 19:33N 35°30' E 139°53'1414.1
2014-Apr-18 18:33N 35°17' E 139°45'1616.4
2014-Apr-18 17:33N 35°01' E 139°40'24018.5
2014-Apr-18 04:33N 34°03' E 134°57'2323.1
2014-Apr-18 03:33N 34°26' E 135°01'1211.9
2014-Apr-18 02:33N 34°34' E 134°50'21813.5
2014-Apr-17 10:25N 33°60' E 130°30'1720.1
2014-Apr-17 09:33N 33°46' E 130°17'1110.8
2014-Apr-17 08:33N 33°38' E 130°24'0 0.0
2014-Apr-17 07:32N 33°38' E 130°24'0 0.0
2014-Apr-17 06:32N 33°38' E 130°24'0 0.0
2014-Apr-17 05:33N 33°38' E 130°24'0 0.0
2014-Apr-17 04:33N 33°38' E 130°24'0 0.0
2014-Apr-17 03:33N 33°38' E 130°24'0 0.0
2014-Apr-17 02:32N 33°38' E 130°24'0 0.0
2014-Apr-17 01:33N 33°38' E 130°24'0 0.0
2014-Apr-17 00:32N 33°38' E 130°24'0 0.0
2014-Apr-16 22:33N 33°38' E 130°24'0 0.0
2014-Apr-16 21:33N 33°38' E 130°24'0 0.0
2014-Apr-16 20:32N 33°38' E 130°24'8 8.1
2014-Apr-16 19:33N 33°41' E 130°15'2119.5
2014-Apr-16 18:28N 33°59' E 130°28'11515.6
2014-Apr-16 11:07N 32°51' E 132°20'1220.9
2014-Apr-16 10:33N 32°42' E 132°28'1817.0
2014-Apr-16 09:30N 32°41' E 132°49'1717.7
2014-Apr-16 08:33N 32°44' E 133°09'1615.9
2014-Apr-16 07:33N 32°51' E 133°26'27119.1
2014-Apr-15 17:21N 34°27' E 138°30'4019.9
2014-Apr-15 15:21N 34°46' E 139°12'1722.1
2014-Apr-15 14:33N 34°57' E 139°29'2010.1
2014-Apr-15 12:34N 35°11' E 139°46'1414.3
2014-Apr-15 11:34N 35°26' E 139°45'1111.4
2014-Apr-15 10:34N 35°37' E 139°48'0 0.0
2014-Apr-15 07:32N 35°37' E 139°48'0 0.0
2014-Apr-15 06:32N 35°37' E 139°48'0 0.0
2014-Apr-15 03:32N 35°37' E 139°48'0 0.0
2014-Apr-14 22:32N 35°37' E 139°48'0 0.1
2014-Apr-14 21:32N 35°37' E 139°48'0 0.0
2014-Apr-14 19:32N 35°37' E 139°48'0 0.0
2014-Apr-14 18:32N 35°37' E 139°48'0 0.0
2014-Apr-14 16:31N 35°37' E 139°48'0 0.0
2014-Apr-14 15:31N 35°37' E 139°48'0 0.0
2014-Apr-14 14:31N 35°37' E 139°48'0 0.0
2014-Apr-14 13:31N 35°37' E 139°48'0 0.0
2014-Apr-14 09:31N 35°37' E 139°48'0 0.0
2014-Apr-14 05:31N 35°37' E 139°48'  

Dump ship's entire track history

sailing weather and tide predictions

Sunflower Hakata — JL6711 — position and weather